Dario Filipe — CUHY7 — position and weather

sailwx.info

Track history (hours):
 
Tides and Currents Weather Stations Pressure Air Temp Water Temp Dewpoint Dewpoint Depression Visibility Wind Speed Wind Dir Waves Ship Positions

Dario Filipe

Last reported at 2017-Apr-04 00:41 UTC. Time now 2017-Apr-27 19:02 UTC.
Position N 39°19' W 011°13'.
Warning: this ship's position is 23 days out of date.

Length 24 m.

Type: Fishing. MMSI: 263414640.

Date/timePositionNaut miles runAvg speedWind from/ knotsBaromVisibWave heightAir tempDewpointWater temp
2017-Apr-04 00:41N 39°19' W 011°13'1 8.2
2017-Apr-04 00:30N 39°19' W 011°11'42 8.2
2017-Apr-03 19:26N 39°19' W 010°18'4 8.4
2017-Apr-03 19:00N 39°20' W 010°13'4 8.3
2017-Apr-03 18:30N 39°20' W 010°08'4 7.8
2017-Apr-03 18:00N 39°20' W 010°03'6 8.2
2017-Apr-03 17:18N 39°20' W 009°55'3 8.6
2017-Apr-03 16:58N 39°20' W 009°51'4 8.2
2017-Apr-03 16:28N 39°20' W 009°46'4 8.0
2017-Apr-03 15:59N 39°20' W 009°41'4 8.3
2017-Apr-03 15:30N 39°20' W 009°36'4 8.1
2017-Apr-03 15:00N 39°21' W 009°31'4 8.2
2017-Apr-03 14:30N 39°21' W 009°25'  
2017-Mar-25 14:28N 39°21' W 009°22'  
Track history (hours):
 
Tides and Currents Weather Stations Pressure Air Temp Water Temp Dewpoint Dewpoint Depression Visibility Wind Speed Wind Dir Waves Ship Positions

Dario Filipe

Last reported at 2017-Apr-04 00:41 UTC. Time now 2017-Apr-27 19:02 UTC.
Position N 39°19' W 011°13'.
Warning: this ship's position is 23 days out of date.

Length 24 m.

Type: Fishing. MMSI: 263414640.

Date/timePositionNaut miles runAvg speedWind from/ knotsBaromVisibWave heightAir tempDewpointWater temp
2017-Apr-04 00:41N 39°19' W 011°13'1 8.2
2017-Apr-04 00:30N 39°19' W 011°11'42 8.2
2017-Apr-03 19:26N 39°19' W 010°18'4 8.4
2017-Apr-03 19:00N 39°20' W 010°13'4 8.3
2017-Apr-03 18:30N 39°20' W 010°08'4 7.8
2017-Apr-03 18:00N 39°20' W 010°03'6 8.2
2017-Apr-03 17:18N 39°20' W 009°55'3 8.6
2017-Apr-03 16:58N 39°20' W 009°51'4 8.2
2017-Apr-03 16:28N 39°20' W 009°46'4 8.0
2017-Apr-03 15:59N 39°20' W 009°41'4 8.3
2017-Apr-03 15:30N 39°20' W 009°36'4 8.1
2017-Apr-03 15:00N 39°21' W 009°31'4 8.2
2017-Apr-03 14:30N 39°21' W 009°25'  
2017-Mar-25 14:28N 39°21' W 009°22'  

Dump ship's entire track history